sensor_id;sensor_type;location;lat;lon;timestamp;P1;durP1;ratioP1;P2;durP2;ratioP2
4244;SDS011;2136;48.502;9.194;2022-11-14T00:01:53;25.37;;;16.03;;
4244;SDS011;2136;48.502;9.194;2022-11-14T00:04:20;27.80;;;17.13;;
4244;SDS011;2136;48.502;9.194;2022-11-14T00:06:47;30.93;;;18.70;;
4244;SDS011;2136;48.502;9.194;2022-11-14T00:09:13;24.20;;;14.97;;
4244;SDS011;2136;48.502;9.194;2022-11-14T00:11:42;25.97;;;15.50;;
4244;SDS011;2136;48.502;9.194;2022-11-14T00:14:08;37.63;;;15.47;;
4244;SDS011;2136;48.502;9.194;2022-11-14T00:16:35;22.27;;;15.63;;
4244;SDS011;2136;48.502;9.194;2022-11-14T00:19:02;22.30;;;14.87;;
4244;SDS011;2136;48.502;9.194;2022-11-14T00:21:29;25.33;;;16.60;;
4244;SDS011;2136;48.502;9.194;2022-11-14T00:23:56;24.10;;;15.73;;
4244;SDS011;2136;48.502;9.194;2022-11-14T00:26:23;20.97;;;13.70;;
4244;SDS011;2136;48.502;9.194;2022-11-14T00:28:51;21.60;;;14.60;;
4244;SDS011;2136;48.502;9.194;2022-11-14T00:31:19;20.77;;;14.93;;
4244;SDS011;2136;48.502;9.194;2022-11-14T00:33:46;21.53;;;15.20;;
4244;SDS011;2136;48.502;9.194;2022-11-14T00:36:12;24.10;;;15.37;;
4244;SDS011;2136;48.502;9.194;2022-11-14T00:38:39;22.00;;;14.40;;
4244;SDS011;2136;48.502;9.194;2022-11-14T00:41:06;24.10;;;14.80;;
4244;SDS011;2136;48.502;9.194;2022-11-14T00:43:33;21.37;;;14.60;;
4244;SDS011;2136;48.502;9.194;2022-11-14T00:46:01;23.23;;;14.73;;
4244;SDS011;2136;48.502;9.194;2022-11-14T00:48:28;23.23;;;15.40;;
4244;SDS011;2136;48.502;9.194;2022-11-14T00:50:55;24.23;;;15.00;;
4244;SDS011;2136;48.502;9.194;2022-11-14T00:53:22;22.43;;;14.83;;
4244;SDS011;2136;48.502;9.194;2022-11-14T00:55:49;22.47;;;14.00;;
4244;SDS011;2136;48.502;9.194;2022-11-14T00:58:16;24.60;;;15.87;;
4244;SDS011;2136;48.502;9.194;2022-11-14T01:00:43;22.40;;;15.30;;
4244;SDS011;2136;48.502;9.194;2022-11-14T01:03:11;24.47;;;15.27;;
4244;SDS011;2136;48.502;9.194;2022-11-14T01:05:41;25.37;;;14.57;;
4244;SDS011;2136;48.502;9.194;2022-11-14T01:08:08;22.00;;;15.13;;
4244;SDS011;2136;48.502;9.194;2022-11-14T01:10:37;22.77;;;14.37;;
4244;SDS011;2136;48.502;9.194;2022-11-14T01:13:05;20.23;;;15.50;;
4244;SDS011;2136;48.502;9.194;2022-11-14T01:15:32;22.83;;;14.17;;
4244;SDS011;2136;48.502;9.194;2022-11-14T01:17:58;24.10;;;15.93;;
4244;SDS011;2136;48.502;9.194;2022-11-14T01:20:26;23.70;;;14.87;;
4244;SDS011;2136;48.502;9.194;2022-11-14T01:22:53;23.17;;;14.30;;
4244;SDS011;2136;48.502;9.194;2022-11-14T01:25:20;18.67;;;12.90;;
4244;SDS011;2136;48.502;9.194;2022-11-14T01:27:47;24.10;;;13.67;;
4244;SDS011;2136;48.502;9.194;2022-11-14T01:30:14;20.80;;;12.10;;
4244;SDS011;2136;48.502;9.194;2022-11-14T01:32:40;18.50;;;13.10;;
4244;SDS011;2136;48.502;9.194;2022-11-14T01:35:07;19.17;;;13.70;;
4244;SDS011;2136;48.502;9.194;2022-11-14T01:37:35;20.27;;;13.47;;
4244;SDS011;2136;48.502;9.194;2022-11-14T01:40:02;20.13;;;13.33;;
4244;SDS011;2136;48.502;9.194;2022-11-14T01:42:30;20.00;;;13.33;;
4244;SDS011;2136;48.502;9.194;2022-11-14T01:44:56;19.37;;;13.27;;
4244;SDS011;2136;48.502;9.194;2022-11-14T01:47:25;21.50;;;13.07;;
4244;SDS011;2136;48.502;9.194;2022-11-14T01:49:57;24.97;;;14.00;;
4244;SDS011;2136;48.502;9.194;2022-11-14T01:52:26;22.77;;;15.40;;
4244;SDS011;2136;48.502;9.194;2022-11-14T01:54:58;19.87;;;14.70;;
4244;SDS011;2136;48.502;9.194;2022-11-14T01:57:27;18.80;;;12.30;;
4244;SDS011;2136;48.502;9.194;2022-11-14T01:59:57;19.67;;;12.70;;
4244;SDS011;2136;48.502;9.194;2022-11-14T02:02:31;16.80;;;12.13;;
4244;SDS011;2136;48.502;9.194;2022-11-14T02:04:59;17.30;;;13.20;;
4244;SDS011;2136;48.502;9.194;2022-11-14T02:07:31;19.00;;;11.77;;
4244;SDS011;2136;48.502;9.194;2022-11-14T02:10:04;21.53;;;12.80;;
4244;SDS011;2136;48.502;9.194;2022-11-14T02:12:33;19.20;;;12.97;;
4244;SDS011;2136;48.502;9.194;2022-11-14T02:15:01;16.63;;;12.43;;
4244;SDS011;2136;48.502;9.194;2022-11-14T02:17:28;21.77;;;13.57;;
4244;SDS011;2136;48.502;9.194;2022-11-14T02:20:00;21.73;;;13.10;;
4244;SDS011;2136;48.502;9.194;2022-11-14T02:22:40;25.80;;;13.50;;
4244;SDS011;2136;48.502;9.194;2022-11-14T02:25:08;20.20;;;14.23;;
4244;SDS011;2136;48.502;9.194;2022-11-14T02:27:37;20.03;;;14.50;;
4244;SDS011;2136;48.502;9.194;2022-11-14T02:30:06;20.10;;;13.83;;
4244;SDS011;2136;48.502;9.194;2022-11-14T02:32:35;20.27;;;13.37;;
4244;SDS011;2136;48.502;9.194;2022-11-14T02:35:03;21.03;;;14.33;;
4244;SDS011;2136;48.502;9.194;2022-11-14T02:37:30;17.77;;;12.43;;
4244;SDS011;2136;48.502;9.194;2022-11-14T02:39:57;18.83;;;12.80;;
4244;SDS011;2136;48.502;9.194;2022-11-14T02:42:24;16.30;;;12.40;;
4244;SDS011;2136;48.502;9.194;2022-11-14T02:44:51;19.57;;;12.40;;
4244;SDS011;2136;48.502;9.194;2022-11-14T02:47:18;20.33;;;13.13;;
4244;SDS011;2136;48.502;9.194;2022-11-14T02:49:45;19.70;;;12.40;;
4244;SDS011;2136;48.502;9.194;2022-11-14T02:52:13;22.13;;;13.83;;
4244;SDS011;2136;48.502;9.194;2022-11-14T02:54:40;27.93;;;14.10;;
4244;SDS011;2136;48.502;9.194;2022-11-14T02:57:07;16.80;;;12.20;;
4244;SDS011;2136;48.502;9.194;2022-11-14T02:59:34;17.90;;;12.50;;
4244;SDS011;2136;48.502;9.194;2022-11-14T03:02:00;16.20;;;11.77;;
4244;SDS011;2136;48.502;9.194;2022-11-14T03:04:27;20.10;;;13.10;;
4244;SDS011;2136;48.502;9.194;2022-11-14T03:06:54;22.20;;;13.87;;
4244;SDS011;2136;48.502;9.194;2022-11-14T03:09:22;18.97;;;12.43;;
4244;SDS011;2136;48.502;9.194;2022-11-14T03:11:49;15.57;;;11.57;;
4244;SDS011;2136;48.502;9.194;2022-11-14T03:14:16;17.20;;;11.70;;
4244;SDS011;2136;48.502;9.194;2022-11-14T03:16:42;26.27;;;11.10;;
4244;SDS011;2136;48.502;9.194;2022-11-14T03:19:09;21.20;;;12.43;;
4244;SDS011;2136;48.502;9.194;2022-11-14T03:21:36;19.17;;;12.80;;
4244;SDS011;2136;48.502;9.194;2022-11-14T03:24:03;18.10;;;11.50;;
4244;SDS011;2136;48.502;9.194;2022-11-14T03:26:32;19.13;;;11.30;;
4244;SDS011;2136;48.502;9.194;2022-11-14T03:28:58;21.00;;;11.27;;
4244;SDS011;2136;48.502;9.194;2022-11-14T03:31:25;20.00;;;12.17;;
4244;SDS011;2136;48.502;9.194;2022-11-14T03:33:52;18.20;;;11.93;;
4244;SDS011;2136;48.502;9.194;2022-11-14T03:36:19;17.60;;;12.50;;
4244;SDS011;2136;48.502;9.194;2022-11-14T03:38:45;18.50;;;11.73;;
4244;SDS011;2136;48.502;9.194;2022-11-14T03:41:12;18.70;;;11.30;;
4244;SDS011;2136;48.502;9.194;2022-11-14T03:43:41;15.10;;;10.80;;
4244;SDS011;2136;48.502;9.194;2022-11-14T03:46:07;16.13;;;11.20;;
4244;SDS011;2136;48.502;9.194;2022-11-14T03:48:34;19.50;;;11.93;;
4244;SDS011;2136;48.502;9.194;2022-11-14T03:51:01;19.00;;;12.20;;
4244;SDS011;2136;48.502;9.194;2022-11-14T03:53:28;18.33;;;11.13;;
4244;SDS011;2136;48.502;9.194;2022-11-14T03:55:55;17.70;;;11.37;;
4244;SDS011;2136;48.502;9.194;2022-11-14T03:58:21;16.60;;;11.60;;
4244;SDS011;2136;48.502;9.194;2022-11-14T04:00:50;17.10;;;11.40;;
4244;SDS011;2136;48.502;9.194;2022-11-14T04:03:17;17.37;;;11.10;;
4244;SDS011;2136;48.502;9.194;2022-11-14T04:05:44;15.20;;;10.83;;
4244;SDS011;2136;48.502;9.194;2022-11-14T04:08:10;16.13;;;11.23;;
4244;SDS011;2136;48.502;9.194;2022-11-14T04:10:37;20.03;;;13.50;;
4244;SDS011;2136;48.502;9.194;2022-11-14T04:13:05;20.00;;;13.83;;
4244;SDS011;2136;48.502;9.194;2022-11-14T04:15:32;17.30;;;11.40;;
4244;SDS011;2136;48.502;9.194;2022-11-14T04:18:01;17.43;;;12.20;;
4244;SDS011;2136;48.502;9.194;2022-11-14T04:20:27;16.30;;;10.87;;
4244;SDS011;2136;48.502;9.194;2022-11-14T04:22:54;16.23;;;10.63;;
4244;SDS011;2136;48.502;9.194;2022-11-14T04:25:21;15.63;;;10.83;;
4244;SDS011;2136;48.502;9.194;2022-11-14T04:27:48;17.53;;;11.30;;
4244;SDS011;2136;48.502;9.194;2022-11-14T04:30:15;16.17;;;9.40;;
4244;SDS011;2136;48.502;9.194;2022-11-14T04:32:43;14.50;;;9.97;;
4244;SDS011;2136;48.502;9.194;2022-11-14T04:35:14;17.93;;;9.80;;
4244;SDS011;2136;48.502;9.194;2022-11-14T04:37:40;14.20;;;8.80;;
4244;SDS011;2136;48.502;9.194;2022-11-14T04:40:08;16.63;;;10.37;;
4244;SDS011;2136;48.502;9.194;2022-11-14T04:42:35;12.50;;;9.47;;
4244;SDS011;2136;48.502;9.194;2022-11-14T04:45:02;14.13;;;9.67;;
4244;SDS011;2136;48.502;9.194;2022-11-14T04:47:29;9.00;;;7.20;;
4244;SDS011;2136;48.502;9.194;2022-11-14T04:49:56;14.33;;;10.60;;
4244;SDS011;2136;48.502;9.194;2022-11-14T04:52:24;13.60;;;9.40;;
4244;SDS011;2136;48.502;9.194;2022-11-14T04:54:51;19.33;;;9.40;;
4244;SDS011;2136;48.502;9.194;2022-11-14T04:57:18;37.00;;;21.27;;
4244;SDS011;2136;48.502;9.194;2022-11-14T04:59:45;16.47;;;10.90;;
4244;SDS011;2136;48.502;9.194;2022-11-14T05:02:11;16.35;;;11.38;;
4244;SDS011;2136;48.502;9.194;2022-11-14T05:04:38;13.53;;;8.80;;
4244;SDS011;2136;48.502;9.194;2022-11-14T05:07:05;11.53;;;8.80;;
4244;SDS011;2136;48.502;9.194;2022-11-14T05:09:33;9.83;;;8.70;;
4244;SDS011;2136;48.502;9.194;2022-11-14T05:12:00;12.00;;;8.77;;
4244;SDS011;2136;48.502;9.194;2022-11-14T05:14:27;12.30;;;8.57;;
4244;SDS011;2136;48.502;9.194;2022-11-14T05:16:55;14.20;;;9.50;;
4244;SDS011;2136;48.502;9.194;2022-11-14T05:19:22;13.37;;;9.00;;
4244;SDS011;2136;48.502;9.194;2022-11-14T05:21:49;12.37;;;8.80;;
4244;SDS011;2136;48.502;9.194;2022-11-14T05:24:16;13.73;;;10.30;;
4244;SDS011;2136;48.502;9.194;2022-11-14T05:26:44;13.57;;;9.10;;
4244;SDS011;2136;48.502;9.194;2022-11-14T05:29:11;14.67;;;9.67;;
4244;SDS011;2136;48.502;9.194;2022-11-14T05:31:38;11.30;;;9.20;;
4244;SDS011;2136;48.502;9.194;2022-11-14T05:34:05;10.47;;;8.40;;
4244;SDS011;2136;48.502;9.194;2022-11-14T05:36:32;8.90;;;7.83;;
4244;SDS011;2136;48.502;9.194;2022-11-14T05:38:58;10.83;;;8.07;;
4244;SDS011;2136;48.502;9.194;2022-11-14T05:41:25;8.80;;;7.90;;
4244;SDS011;2136;48.502;9.194;2022-11-14T05:43:53;13.43;;;7.83;;
4244;SDS011;2136;48.502;9.194;2022-11-14T05:46:20;10.30;;;8.10;;
4244;SDS011;2136;48.502;9.194;2022-11-14T05:48:47;9.97;;;7.80;;
4244;SDS011;2136;48.502;9.194;2022-11-14T05:51:14;10.00;;;7.43;;
4244;SDS011;2136;48.502;9.194;2022-11-14T05:53:41;9.63;;;7.33;;
4244;SDS011;2136;48.502;9.194;2022-11-14T05:56:08;11.80;;;9.23;;
4244;SDS011;2136;48.502;9.194;2022-11-14T05:58:36;12.93;;;9.60;;
4244;SDS011;2136;48.502;9.194;2022-11-14T06:01:06;12.77;;;9.37;;
4244;SDS011;2136;48.502;9.194;2022-11-14T06:03:35;16.10;;;10.47;;
4244;SDS011;2136;48.502;9.194;2022-11-14T06:06:04;11.83;;;9.17;;
4244;SDS011;2136;48.502;9.194;2022-11-14T06:08:33;11.00;;;7.50;;
4244;SDS011;2136;48.502;9.194;2022-11-14T06:11:03;13.30;;;9.13;;
4244;SDS011;2136;48.502;9.194;2022-11-14T06:13:31;12.00;;;8.63;;
4244;SDS011;2136;48.502;9.194;2022-11-14T06:15:59;11.23;;;8.23;;
4244;SDS011;2136;48.502;9.194;2022-11-14T06:18:28;11.70;;;8.63;;
4244;SDS011;2136;48.502;9.194;2022-11-14T06:20:57;13.33;;;9.60;;
4244;SDS011;2136;48.502;9.194;2022-11-14T06:23:25;12.27;;;8.70;;
4244;SDS011;2136;48.502;9.194;2022-11-14T06:25:56;25.03;;;10.03;;
4244;SDS011;2136;48.502;9.194;2022-11-14T06:28:23;12.83;;;9.50;;
4244;SDS011;2136;48.502;9.194;2022-11-14T06:30:50;12.30;;;9.70;;
4244;SDS011;2136;48.502;9.194;2022-11-14T06:33:17;13.30;;;9.70;;
4244;SDS011;2136;48.502;9.194;2022-11-14T06:35:45;14.53;;;9.67;;
4244;SDS011;2136;48.502;9.194;2022-11-14T06:38:12;14.10;;;10.47;;
4244;SDS011;2136;48.502;9.194;2022-11-14T06:40:38;13.60;;;9.00;;
4244;SDS011;2136;48.502;9.194;2022-11-14T06:43:05;10.87;;;8.30;;
4244;SDS011;2136;48.502;9.194;2022-11-14T06:45:32;12.50;;;9.57;;
4244;SDS011;2136;48.502;9.194;2022-11-14T06:47:59;11.20;;;7.90;;
4244;SDS011;2136;48.502;9.194;2022-11-14T06:50:26;15.93;;;9.83;;
4244;SDS011;2136;48.502;9.194;2022-11-14T06:52:54;12.77;;;9.00;;
4244;SDS011;2136;48.502;9.194;2022-11-14T06:55:22;10.90;;;8.70;;
4244;SDS011;2136;48.502;9.194;2022-11-14T06:57:51;9.60;;;8.00;;
4244;SDS011;2136;48.502;9.194;2022-11-14T07:00:19;9.57;;;7.23;;
4244;SDS011;2136;48.502;9.194;2022-11-14T07:02:46;9.37;;;7.17;;
4244;SDS011;2136;48.502;9.194;2022-11-14T07:05:13;10.03;;;7.73;;
4244;SDS011;2136;48.502;9.194;2022-11-14T07:07:40;10.57;;;8.43;;
4244;SDS011;2136;48.502;9.194;2022-11-14T07:10:09;9.37;;;7.90;;
4244;SDS011;2136;48.502;9.194;2022-11-14T07:12:36;12.73;;;9.47;;
4244;SDS011;2136;48.502;9.194;2022-11-14T07:15:03;8.10;;;7.20;;
4244;SDS011;2136;48.502;9.194;2022-11-14T07:17:30;10.10;;;7.30;;
4244;SDS011;2136;48.502;9.194;2022-11-14T07:19:59;13.03;;;9.10;;
4244;SDS011;2136;48.502;9.194;2022-11-14T07:22:26;11.90;;;8.00;;
4244;SDS011;2136;48.502;9.194;2022-11-14T07:24:53;8.03;;;6.67;;
4244;SDS011;2136;48.502;9.194;2022-11-14T07:27:21;9.87;;;7.17;;
4244;SDS011;2136;48.502;9.194;2022-11-14T07:29:48;12.03;;;8.30;;
4244;SDS011;2136;48.502;9.194;2022-11-14T07:32:15;9.37;;;7.70;;
4244;SDS011;2136;48.502;9.194;2022-11-14T07:34:41;9.73;;;7.10;;
4244;SDS011;2136;48.502;9.194;2022-11-14T07:37:08;9.50;;;6.80;;
4244;SDS011;2136;48.502;9.194;2022-11-14T07:39:35;9.07;;;7.73;;
4244;SDS011;2136;48.502;9.194;2022-11-14T07:42:02;9.47;;;7.90;;
4244;SDS011;2136;48.502;9.194;2022-11-14T07:44:30;8.90;;;6.97;;
4244;SDS011;2136;48.502;9.194;2022-11-14T07:46:57;15.10;;;8.60;;
4244;SDS011;2136;48.502;9.194;2022-11-14T07:49:23;10.00;;;7.27;;
4244;SDS011;2136;48.502;9.194;2022-11-14T07:51:50;10.20;;;8.40;;
4244;SDS011;2136;48.502;9.194;2022-11-14T07:54:17;10.03;;;8.10;;
4244;SDS011;2136;48.502;9.194;2022-11-14T07:56:44;10.80;;;7.27;;
4244;SDS011;2136;48.502;9.194;2022-11-14T07:59:11;9.70;;;6.70;;
4244;SDS011;2136;48.502;9.194;2022-11-14T08:01:39;8.40;;;7.03;;
4244;SDS011;2136;48.502;9.194;2022-11-14T08:04:05;12.00;;;7.77;;
4244;SDS011;2136;48.502;9.194;2022-11-14T08:06:32;12.33;;;9.27;;
4244;SDS011;2136;48.502;9.194;2022-11-14T08:08:59;12.30;;;9.07;;
4244;SDS011;2136;48.502;9.194;2022-11-14T08:11:26;9.77;;;7.17;;
4244;SDS011;2136;48.502;9.194;2022-11-14T08:14:06;9.77;;;6.93;;
4244;SDS011;2136;48.502;9.194;2022-11-14T08:16:33;7.30;;;4.50;;
4244;SDS011;2136;48.502;9.194;2022-11-14T08:19:01;5.50;;;5.00;;
4244;SDS011;2136;48.502;9.194;2022-11-14T08:21:28;6.33;;;4.47;;
4244;SDS011;2136;48.502;9.194;2022-11-14T08:23:55;10.00;;;4.97;;
4244;SDS011;2136;48.502;9.194;2022-11-14T08:26:22;19.33;;;13.27;;
4244;SDS011;2136;48.502;9.194;2022-11-14T08:28:51;9.10;;;7.50;;
4244;SDS011;2136;48.502;9.194;2022-11-14T08:31:18;8.40;;;6.63;;
4244;SDS011;2136;48.502;9.194;2022-11-14T08:33:45;6.03;;;5.20;;
4244;SDS011;2136;48.502;9.194;2022-11-14T08:36:15;6.87;;;5.00;;
4244;SDS011;2136;48.502;9.194;2022-11-14T08:38:42;6.77;;;5.20;;
4244;SDS011;2136;48.502;9.194;2022-11-14T08:41:09;9.10;;;6.63;;
4244;SDS011;2136;48.502;9.194;2022-11-14T08:43:36;10.77;;;6.20;;
4244;SDS011;2136;48.502;9.194;2022-11-14T08:46:03;7.47;;;4.80;;
4244;SDS011;2136;48.502;9.194;2022-11-14T08:48:30;6.47;;;4.93;;
4244;SDS011;2136;48.502;9.194;2022-11-14T08:51:00;3.37;;;3.07;;
4244;SDS011;2136;48.502;9.194;2022-11-14T08:53:30;2.93;;;2.63;;
4244;SDS011;2136;48.502;9.194;2022-11-14T08:55:57;5.57;;;2.27;;
4244;SDS011;2136;48.502;9.194;2022-11-14T08:58:26;3.23;;;2.20;;
4244;SDS011;2136;48.502;9.194;2022-11-14T09:00:54;2.43;;;2.23;;
4244;SDS011;2136;48.502;9.194;2022-11-14T09:03:24;3.27;;;1.80;;
4244;SDS011;2136;48.502;9.194;2022-11-14T09:05:51;2.20;;;2.00;;
4244;SDS011;2136;48.502;9.194;2022-11-14T09:08:18;3.17;;;2.90;;
4244;SDS011;2136;48.502;9.194;2022-11-14T09:10:46;3.40;;;3.10;;
4244;SDS011;2136;48.502;9.194;2022-11-14T09:13:13;4.30;;;3.90;;
4244;SDS011;2136;48.502;9.194;2022-11-14T09:15:41;5.90;;;3.20;;
4244;SDS011;2136;48.502;9.194;2022-11-14T09:18:08;8.80;;;5.60;;
4244;SDS011;2136;48.502;9.194;2022-11-14T09:20:35;4.13;;;3.00;;
4244;SDS011;2136;48.502;9.194;2022-11-14T09:23:02;4.30;;;2.70;;
4244;SDS011;2136;48.502;9.194;2022-11-14T09:25:30;4.07;;;3.73;;
4244;SDS011;2136;48.502;9.194;2022-11-14T09:28:01;4.90;;;3.37;;
4244;SDS011;2136;48.502;9.194;2022-11-14T09:30:29;2.70;;;2.40;;
4244;SDS011;2136;48.502;9.194;2022-11-14T09:32:57;3.60;;;2.03;;
4244;SDS011;2136;48.502;9.194;2022-11-14T09:35:26;2.10;;;1.90;;
4244;SDS011;2136;48.502;9.194;2022-11-14T09:37:58;2.00;;;1.43;;
4244;SDS011;2136;48.502;9.194;2022-11-14T09:40:25;2.10;;;2.00;;
4244;SDS011;2136;48.502;9.194;2022-11-14T09:43:01;3.10;;;2.00;;
4244;SDS011;2136;48.502;9.194;2022-11-14T09:45:39;1.90;;;1.80;;
4244;SDS011;2136;48.502;9.194;2022-11-14T09:48:13;3.17;;;1.60;;
4244;SDS011;2136;48.502;9.194;2022-11-14T09:50:43;2.93;;;1.73;;
4244;SDS011;2136;48.502;9.194;2022-11-14T09:53:15;1.20;;;1.20;;
4244;SDS011;2136;48.502;9.194;2022-11-14T09:55:51;1.00;;;1.00;;
4244;SDS011;2136;48.502;9.194;2022-11-14T09:58:19;2.23;;;1.50;;
4244;SDS011;2136;48.502;9.194;2022-11-14T10:00:49;1.53;;;1.30;;
4244;SDS011;2136;48.502;9.194;2022-11-14T10:03:22;1.67;;;1.57;;
4244;SDS011;2136;48.502;9.194;2022-11-14T10:06:00;2.10;;;1.33;;
4244;SDS011;2136;48.502;9.194;2022-11-14T10:08:56;1.20;;;1.20;;
4244;SDS011;2136;48.502;9.194;2022-11-14T10:11:31;1.37;;;1.20;;
4244;SDS011;2136;48.502;9.194;2022-11-14T10:17:06;1.50;;;1.40;;
4244;SDS011;2136;48.502;9.194;2022-11-14T10:19:46;2.60;;;1.30;;
4244;SDS011;2136;48.502;9.194;2022-11-14T10:22:25;2.40;;;2.10;;
4244;SDS011;2136;48.502;9.194;2022-11-14T10:25:13;1.47;;;1.37;;
4244;SDS011;2136;48.502;9.194;2022-11-14T10:27:49;1.77;;;1.67;;
4244;SDS011;2136;48.502;9.194;2022-11-14T10:30:29;1.33;;;1.23;;
4244;SDS011;2136;48.502;9.194;2022-11-14T10:35:55;1.57;;;1.47;;
4244;SDS011;2136;48.502;9.194;2022-11-14T10:38:28;1.53;;;1.43;;
4244;SDS011;2136;48.502;9.194;2022-11-14T10:41:00;2.10;;;1.13;;
4244;SDS011;2136;48.502;9.194;2022-11-14T10:43:31;2.17;;;1.40;;
4244;SDS011;2136;48.502;9.194;2022-11-14T10:46:04;1.43;;;1.33;;
4244;SDS011;2136;48.502;9.194;2022-11-14T10:48:37;1.53;;;1.33;;
4244;SDS011;2136;48.502;9.194;2022-11-14T10:51:07;1.50;;;1.40;;
4244;SDS011;2136;48.502;9.194;2022-11-14T10:53:47;1.33;;;1.10;;
4244;SDS011;2136;48.502;9.194;2022-11-14T10:56:17;1.20;;;1.10;;
4244;SDS011;2136;48.502;9.194;2022-11-14T10:58:44;1.50;;;1.40;;
4244;SDS011;2136;48.502;9.194;2022-11-14T11:06:57;1.47;;;1.27;;
4244;SDS011;2136;48.502;9.194;2022-11-14T11:09:58;1.77;;;1.30;;
4244;SDS011;2136;48.502;9.194;2022-11-14T11:12:52;1.30;;;1.20;;
4244;SDS011;2136;48.502;9.194;2022-11-14T11:15:19;1.30;;;1.20;;
4244;SDS011;2136;48.502;9.194;2022-11-14T11:17:52;1.30;;;1.30;;
4244;SDS011;2136;48.502;9.194;2022-11-14T11:20:26;2.10;;;1.40;;
4244;SDS011;2136;48.502;9.194;2022-11-14T11:23:02;1.30;;;1.20;;
4244;SDS011;2136;48.502;9.194;2022-11-14T11:25:30;1.97;;;1.87;;
4244;SDS011;2136;48.502;9.194;2022-11-14T11:28:05;2.03;;;1.83;;
4244;SDS011;2136;48.502;9.194;2022-11-14T11:30:35;4.40;;;2.90;;
4244;SDS011;2136;48.502;9.194;2022-11-14T11:33:16;1.90;;;1.80;;
4244;SDS011;2136;48.502;9.194;2022-11-14T11:35:51;2.60;;;2.40;;
4244;SDS011;2136;48.502;9.194;2022-11-14T11:38:21;1.80;;;1.70;;
4244;SDS011;2136;48.502;9.194;2022-11-14T11:40:51;1.70;;;1.60;;
4244;SDS011;2136;48.502;9.194;2022-11-14T11:43:24;1.73;;;1.60;;
4244;SDS011;2136;48.502;9.194;2022-11-14T11:45:55;7.90;;;4.80;;
4244;SDS011;2136;48.502;9.194;2022-11-14T11:48:27;4.43;;;2.43;;
4244;SDS011;2136;48.502;9.194;2022-11-14T11:51:01;2.07;;;1.90;;
4244;SDS011;2136;48.502;9.194;2022-11-14T11:53:30;2.00;;;1.90;;
4244;SDS011;2136;48.502;9.194;2022-11-14T11:56:03;2.50;;;2.30;;
4244;SDS011;2136;48.502;9.194;2022-11-14T11:58:34;2.17;;;1.97;;
4244;SDS011;2136;48.502;9.194;2022-11-14T12:01:08;3.80;;;2.80;;
4244;SDS011;2136;48.502;9.194;2022-11-14T12:03:35;2.13;;;2.03;;
4244;SDS011;2136;48.502;9.194;2022-11-14T12:06:06;3.27;;;2.47;;
4244;SDS011;2136;48.502;9.194;2022-11-14T12:08:40;2.60;;;2.37;;
4244;SDS011;2136;48.502;9.194;2022-11-14T12:11:17;5.47;;;2.57;;
4244;SDS011;2136;48.502;9.194;2022-11-14T12:13:50;1.70;;;1.60;;
4244;SDS011;2136;48.502;9.194;2022-11-14T12:16:53;2.53;;;2.20;;
4244;SDS011;2136;48.502;9.194;2022-11-14T12:22:36;1.87;;;1.73;;
4244;SDS011;2136;48.502;9.194;2022-11-14T12:25:28;2.97;;;2.03;;
4244;SDS011;2136;48.502;9.194;2022-11-14T12:28:23;1.83;;;1.70;;
4244;SDS011;2136;48.502;9.194;2022-11-14T12:31:01;2.00;;;1.90;;
4244;SDS011;2136;48.502;9.194;2022-11-14T12:33:31;3.13;;;2.10;;
4244;SDS011;2136;48.502;9.194;2022-11-14T12:36:01;4.83;;;2.70;;
4244;SDS011;2136;48.502;9.194;2022-11-14T12:38:31;3.17;;;1.63;;
4244;SDS011;2136;48.502;9.194;2022-11-14T12:41:06;2.97;;;2.40;;
4244;SDS011;2136;48.502;9.194;2022-11-14T12:43:34;9.80;;;2.50;;
4244;SDS011;2136;48.502;9.194;2022-11-14T12:46:02;2.23;;;2.03;;
4244;SDS011;2136;48.502;9.194;2022-11-14T12:48:34;2.13;;;1.93;;
4244;SDS011;2136;48.502;9.194;2022-11-14T12:51:03;5.17;;;2.47;;
4244;SDS011;2136;48.502;9.194;2022-11-14T12:53:52;4.27;;;2.27;;
4244;SDS011;2136;48.502;9.194;2022-11-14T12:59:23;2.10;;;2.00;;
4244;SDS011;2136;48.502;9.194;2022-11-14T13:02:12;3.60;;;1.70;;
4244;SDS011;2136;48.502;9.194;2022-11-14T13:05:17;1.83;;;1.67;;
4244;SDS011;2136;48.502;9.194;2022-11-14T13:07:54;1.60;;;1.50;;
4244;SDS011;2136;48.502;9.194;2022-11-14T13:10:37;3.83;;;1.70;;
4244;SDS011;2136;48.502;9.194;2022-11-14T13:13:05;3.10;;;2.13;;
4244;SDS011;2136;48.502;9.194;2022-11-14T13:15:51;3.63;;;2.00;;
4244;SDS011;2136;48.502;9.194;2022-11-14T13:18:48;2.63;;;2.07;;
4244;SDS011;2136;48.502;9.194;2022-11-14T13:21:34;2.30;;;1.90;;
4244;SDS011;2136;48.502;9.194;2022-11-14T13:24:11;3.00;;;2.10;;
4244;SDS011;2136;48.502;9.194;2022-11-14T13:26:48;3.03;;;2.03;;
4244;SDS011;2136;48.502;9.194;2022-11-14T13:35:20;3.50;;;2.50;;
4244;SDS011;2136;48.502;9.194;2022-11-14T13:38:24;4.70;;;1.90;;
4244;SDS011;2136;48.502;9.194;2022-11-14T13:41:12;6.43;;;2.10;;
4244;SDS011;2136;48.502;9.194;2022-11-14T13:43:56;2.20;;;2.00;;
4244;SDS011;2136;48.502;9.194;2022-11-14T13:46:40;2.47;;;1.80;;
4244;SDS011;2136;48.502;9.194;2022-11-14T13:49:22;3.37;;;3.07;;
4244;SDS011;2136;48.502;9.194;2022-11-14T13:52:01;4.87;;;2.37;;
4244;SDS011;2136;48.502;9.194;2022-11-14T13:54:29;3.00;;;2.20;;
4244;SDS011;2136;48.502;9.194;2022-11-14T13:57:04;3.00;;;1.93;;
4244;SDS011;2136;48.502;9.194;2022-11-14T13:59:46;4.60;;;1.93;;
4244;SDS011;2136;48.502;9.194;2022-11-14T14:02:28;3.63;;;2.10;;
4244;SDS011;2136;48.502;9.194;2022-11-14T14:05:31;3.73;;;1.60;;
4244;SDS011;2136;48.502;9.194;2022-11-14T14:08:13;9.30;;;2.30;;
4244;SDS011;2136;48.502;9.194;2022-11-14T14:10:50;2.40;;;2.20;;
4244;SDS011;2136;48.502;9.194;2022-11-14T14:13:36;3.20;;;2.57;;
4244;SDS011;2136;48.502;9.194;2022-11-14T14:16:11;4.77;;;2.03;;
4244;SDS011;2136;48.502;9.194;2022-11-14T14:18:47;1.97;;;1.87;;
4244;SDS011;2136;48.502;9.194;2022-11-14T14:21:26;3.77;;;2.07;;
4244;SDS011;2136;48.502;9.194;2022-11-14T14:24:01;3.10;;;2.07;;
4244;SDS011;2136;48.502;9.194;2022-11-14T14:26:39;1.90;;;1.80;;
4244;SDS011;2136;48.502;9.194;2022-11-14T14:29:22;5.70;;;2.50;;
4244;SDS011;2136;48.502;9.194;2022-11-14T14:31:53;2.87;;;2.20;;
4244;SDS011;2136;48.502;9.194;2022-11-14T14:34:31;3.27;;;2.97;;
4244;SDS011;2136;48.502;9.194;2022-11-14T14:36:58;6.33;;;3.30;;
4244;SDS011;2136;48.502;9.194;2022-11-14T14:39:25;9.70;;;3.10;;
4244;SDS011;2136;48.502;9.194;2022-11-14T14:41:54;3.20;;;2.80;;
4244;SDS011;2136;48.502;9.194;2022-11-14T14:44:24;10.37;;;3.23;;
4244;SDS011;2136;48.502;9.194;2022-11-14T14:46:53;5.87;;;3.10;;
4244;SDS011;2136;48.502;9.194;2022-11-14T14:49:21;5.23;;;3.10;;
4244;SDS011;2136;48.502;9.194;2022-11-14T14:51:51;4.83;;;2.80;;
4244;SDS011;2136;48.502;9.194;2022-11-14T14:54:19;4.47;;;3.17;;
4244;SDS011;2136;48.502;9.194;2022-11-14T14:56:53;3.77;;;2.70;;
4244;SDS011;2136;48.502;9.194;2022-11-14T14:59:22;4.60;;;2.60;;
4244;SDS011;2136;48.502;9.194;2022-11-14T15:01:50;14.57;;;3.00;;
4244;SDS011;2136;48.502;9.194;2022-11-14T15:04:18;3.63;;;2.60;;
4244;SDS011;2136;48.502;9.194;2022-11-14T15:06:47;3.67;;;2.77;;
4244;SDS011;2136;48.502;9.194;2022-11-14T15:09:16;1.80;;;1.70;;
4244;SDS011;2136;48.502;9.194;2022-11-14T15:11:45;4.70;;;2.20;;
4244;SDS011;2136;48.502;9.194;2022-11-14T15:14:16;3.07;;;2.50;;
4244;SDS011;2136;48.502;9.194;2022-11-14T15:16:45;7.10;;;2.43;;
4244;SDS011;2136;48.502;9.194;2022-11-14T15:19:15;4.93;;;2.60;;
4244;SDS011;2136;48.502;9.194;2022-11-14T15:21:45;5.00;;;2.20;;
4244;SDS011;2136;48.502;9.194;2022-11-14T15:24:26;6.10;;;2.47;;
4244;SDS011;2136;48.502;9.194;2022-11-14T15:26:53;2.80;;;2.43;;
4244;SDS011;2136;48.502;9.194;2022-11-14T15:29:21;4.80;;;2.47;;
4244;SDS011;2136;48.502;9.194;2022-11-14T15:31:49;3.83;;;2.70;;
4244;SDS011;2136;48.502;9.194;2022-11-14T15:34:24;3.43;;;3.00;;
4244;SDS011;2136;48.502;9.194;2022-11-14T15:37:14;3.53;;;2.60;;
4244;SDS011;2136;48.502;9.194;2022-11-14T15:39:47;4.53;;;2.63;;
4244;SDS011;2136;48.502;9.194;2022-11-14T15:42:15;3.73;;;2.10;;
4244;SDS011;2136;48.502;9.194;2022-11-14T15:44:45;4.10;;;2.53;;
4244;SDS011;2136;48.502;9.194;2022-11-14T15:47:16;3.00;;;2.17;;